Pebworth, Kentucky
Current Conditions -  °F | °C
As of 2:53 PM on Thursday 27 Nov 2014 (Local Time) from KJKL Reporting Station
Overcast Overcast  
Wind Chill: 23°   Ceiling: 2200
Heat Index: 30°   Visibility: 10mi
Dew Point: 22°   Wind: 7mph
Humidity: 72%   Direction: NA
Pressure: 30.27"   Gusts: 20mph
Location:  37.4818°N, 83.6652°W
Report Text: KJKL 271953Z AUTO VRB06G17KT 10SM OVC022 M01/M06 A3027 RMK AO2 SLP260 T10111056
Loading
Personal Weather Stations






























Interactive Weather Map New forecast layout! Learn more

10-Day Weather Forecast

Advertisements
Track Severe Weather on mobile